Ocean Beaut — WDD7485 — position and weather

sailwx.info

Track history (hours):
 
Tides and Currents Weather Stations Pressure Air Temp Water Temp Dewpoint Dewpoint Depression Visibility Wind Speed Wind Dir Waves Ship Positions

Ocean Beaut

Owner: John Moreland Fishing Inc., Astoria, OR. More information available from US FCC via Universal Licensing System.

Last reported at 2016-May-26 15:32 UTC. Time now 2016-May-26 16:28 UTC.
Position N 46°12' W 123°48'.

Length 20 m.

Type: Fishing. MMSI: 367187080.

Date/timePositionNaut miles runAvg speedWind from/ knotsBaromVisibWave heightAir tempDewpointWater temp
2016-May-26 15:32N 46°12' W 123°48'0 0.0
2016-May-26 14:32N 46°12' W 123°48'0 0.0
2016-May-26 13:32N 46°12' W 123°48'0 0.0
2016-May-26 12:32N 46°12' W 123°48'0 0.0
2016-May-26 11:32N 46°12' W 123°48'0 0.0
2016-May-26 10:32N 46°12' W 123°48'0 0.0
2016-May-26 09:32N 46°12' W 123°48'0 0.0
2016-May-26 08:32N 46°12' W 123°48'0 0.0
2016-May-26 07:32N 46°12' W 123°48'0 0.0
2016-May-26 06:32N 46°12' W 123°48'0 0.0
2016-May-26 05:32N 46°12' W 123°48'0 0.0
2016-May-26 04:32N 46°12' W 123°48'0 0.0
2016-May-26 03:32N 46°12' W 123°48'0 0.0
2016-May-26 02:32N 46°12' W 123°48'0 0.0
2016-May-26 01:32N 46°12' W 123°48'0 0.0
2016-May-26 00:32N 46°12' W 123°48'0 0.0
2016-May-25 23:32N 46°12' W 123°48'0 0.0
2016-May-25 22:32N 46°12' W 123°48'0 0.0
2016-May-25 21:32N 46°12' W 123°48'0 0.0
2016-May-25 20:32N 46°12' W 123°48'0 0.0
2016-May-25 19:32N 46°12' W 123°48'0 0.0
2016-May-25 18:32N 46°12' W 123°48'0 0.0
2016-May-25 17:33N 46°12' W 123°48'0 0.0
2016-May-25 16:32N 46°12' W 123°48'0 0.0
2016-May-25 15:32N 46°12' W 123°48'0 0.0
2016-May-25 14:33N 46°12' W 123°48'0 0.0
2016-May-25 13:33N 46°12' W 123°48'0 0.0
2016-May-25 12:33N 46°12' W 123°48'0 0.0
2016-May-25 11:33N 46°12' W 123°48'0 0.0
2016-May-25 10:33N 46°12' W 123°48'0 0.0
2016-May-25 09:33N 46°12' W 123°48'0 0.0
2016-May-25 08:33N 46°12' W 123°48'0 0.0
2016-May-25 07:33N 46°12' W 123°48'0 0.0
2016-May-25 06:33N 46°12' W 123°48'0 0.0
2016-May-25 05:33N 46°12' W 123°48'0 0.0
2016-May-25 04:33N 46°12' W 123°48'0 0.0
2016-May-25 03:33N 46°12' W 123°48'0 0.0
2016-May-25 02:33N 46°12' W 123°48'0 0.0
2016-May-25 01:33N 46°12' W 123°48'0 0.0
2016-May-25 00:33N 46°12' W 123°48'0 0.0
2016-May-24 23:33N 46°12' W 123°48'0 0.0
2016-May-24 22:33N 46°12' W 123°48'0 0.0
2016-May-24 21:33N 46°12' W 123°48'0 0.0
2016-May-24 20:33N 46°12' W 123°48'0 0.0
2016-May-24 19:33N 46°12' W 123°48'0 0.0
2016-May-24 18:33N 46°12' W 123°48'2 1.5
2016-May-24 17:32N 46°12' W 123°50'1 0.9
2016-May-24 16:33N 46°11' W 123°51'0 0.0
2016-May-24 15:33N 46°11' W 123°51'0 0.0
2016-May-24 14:33N 46°11' W 123°51'0 0.0
2016-May-24 13:33N 46°11' W 123°51'0 0.0
2016-May-24 12:33N 46°11' W 123°51'0 0.0
2016-May-24 11:30N 46°11' W 123°51'0 0.2
2016-May-24 10:31N 46°11' W 123°52'0 0.0
2016-May-24 09:31N 46°11' W 123°52'0 0.0
2016-May-24 08:31N 46°11' W 123°52'0 0.0
2016-May-24 07:31N 46°11' W 123°52'0 0.0
2016-May-24 06:31N 46°11' W 123°52'0 0.0
2016-May-24 05:31N 46°11' W 123°52'0 0.0
2016-May-24 04:31N 46°11' W 123°52'0 0.0
2016-May-24 03:31N 46°11' W 123°52'0 0.0
2016-May-24 02:31N 46°11' W 123°52'0 0.0
2016-May-24 01:31N 46°11' W 123°52'0 0.0
2016-May-24 00:32N 46°11' W 123°52'0 0.0
2016-May-23 23:31N 46°11' W 123°52'0 0.0
2016-May-23 22:31N 46°11' W 123°52'0 0.0
2016-May-23 21:31N 46°11' W 123°52'3 2.9
2016-May-23 20:33N 46°12' W 123°56'8 7.9
2016-May-23 19:34N 46°15' W 124°06'5 5.3
2016-May-23 18:34N 46°18' W 124°12'5 4.6
2016-May-23 17:33N 46°22' W 124°16'4 4.1
2016-May-23 16:33N 46°25' W 124°20'4 4.0
2016-May-23 15:32N 46°21' W 124°21'2 2.5
2016-May-23 14:33N 46°19' W 124°24'2 2.3
2016-May-23 13:33N 46°22' W 124°25'2 2.3
2016-May-23 12:33N 46°24' W 124°25'2 2.4
2016-May-23 11:30N 46°26' W 124°25'0 0.2
2016-May-23 10:30N 46°27' W 124°25'0 0.2
2016-May-23 09:24N 46°27' W 124°25'0 0.2
2016-May-23 08:30N 46°27' W 124°25'2 1.6
2016-May-23 07:33N 46°28' W 124°24'1 0.7
2016-May-23 06:33N 46°27' W 124°24'3 3.1
2016-May-23 05:34N 46°24' W 124°25'2 1.8
2016-May-23 04:33N 46°23' W 124°25'2 2.3
2016-May-23 03:33N 46°20' W 124°25'2 2.3
2016-May-23 02:33N 46°19' W 124°23'2 2.3
2016-May-23 01:31N 46°17' W 124°20'3 2.7
2016-May-23 00:33N 46°19' W 124°21'6 6.4
2016-May-22 23:32N 46°26' W 124°20'2 1.6
2016-May-22 22:33N 46°27' W 124°19'2 2.3
2016-May-22 21:33N 46°29' W 124°16'1 1.4
2016-May-22 20:33N 46°30' W 124°15'2 2.4
2016-May-22 19:34N 46°32' W 124°16'2 2.4
2016-May-22 18:33N 46°34' W 124°17'3 3.4
2016-May-22 17:33N 46°35' W 124°22'2 1.8
2016-May-22 16:33N 46°33' W 124°22'2 2.5
2016-May-22 15:33N 46°30' W 124°23'2 2.5
2016-May-22 14:33N 46°28' W 124°23'2 2.1
2016-May-22 13:33N 46°26' W 124°25'2 2.3
2016-May-22 12:33N 46°24' W 124°25'2 2.3
2016-May-22 11:33N 46°22' W 124°24'2 2.4
2016-May-22 10:33N 46°20' W 124°23'2 2.1
2016-May-22 09:33N 46°20' W 124°19'2 2.3
2016-May-22 08:33N 46°22' W 124°19'2 1.8
2016-May-22 07:31N 46°21' W 124°21'2 1.7
2016-May-22 06:33N 46°19' W 124°22'1 1.1
2016-May-22 05:33N 46°18' W 124°23'2 2.2
2016-May-22 04:33N 46°20' W 124°24'2 2.2
2016-May-22 03:33N 46°22' W 124°25'2 2.3
2016-May-22 02:33N 46°25' W 124°25'3 2.6
2016-May-22 01:33N 46°27' W 124°25'6 5.6
2016-May-22 00:34N 46°27' W 124°16'2 1.6
2016-May-21 23:33N 46°25' W 124°17'2 2.5
2016-May-21 22:33N 46°23' W 124°15'2 2.2
2016-May-21 21:33N 46°22' W 124°13'3 3.3
2016-May-21 20:33N 46°19' W 124°15'8 8.1
2016-May-21 19:33N 46°14' W 124°24'7 7.1
2016-May-21 18:33N 46°09' W 124°32'6 6.4
2016-May-21 17:33N 46°05' W 124°39'6 6.0
2016-May-21 16:33N 46°02' W 124°47'2 1.9
2016-May-21 15:30N 46°02' W 124°49'2 1.7
2016-May-21 14:34N 46°03' W 124°50'2 1.6
2016-May-21 13:33N 46°05' W 124°50'7 6.4
2016-May-21 12:30N 46°10' W 124°43'7 7.3
2016-May-21 11:31N 46°16' W 124°38'5 5.6
2016-May-21 10:33N 46°20' W 124°35'2 1.8
2016-May-21 09:33N 46°21' W 124°32'2 2.2
2016-May-21 08:33N 46°20' W 124°29'2 2.3
2016-May-21 07:33N 46°20' W 124°26'2 2.2
2016-May-21 06:33N 46°18' W 124°23'1 1.1
2016-May-21 05:34N 46°18' W 124°22'4 3.6
2016-May-21 04:33N 46°22' W 124°23'6 6.1
2016-May-21 03:33N 46°28' W 124°25'3 2.5
2016-May-21 02:33N 46°30' W 124°25'2 2.5
2016-May-21 01:33N 46°33' W 124°25'2 2.4
2016-May-21 00:33N 46°35' W 124°25'7 6.5
2016-May-20 23:33N 46°41' W 124°27'2 2.2
2016-May-20 22:33N 46°43' W 124°29'3 2.4
2016-May-20 21:21N 46°46' W 124°30'2 2.4
2016-May-20 20:33N 46°48' W 124°31'3 1.3
2016-May-20 18:33N 46°45' W 124°32'2 2.4
2016-May-20 17:31N 46°43' W 124°29'2 2.5
2016-May-20 16:33N 46°41' W 124°28'6 5.8
2016-May-20 15:33N 46°35' W 124°26'6 6.1
2016-May-20 14:33N 46°29' W 124°25'5 4.5
2016-May-20 13:33N 46°25' W 124°25'2 2.1
2016-May-20 12:33N 46°23' W 124°25'2 2.1
2016-May-20 11:34N 46°21' W 124°24'2 2.4
2016-May-20 10:33N 46°19' W 124°22'6 6.0
2016-May-20 09:33N 46°14' W 124°16'7 6.8
2016-May-20 08:33N 46°15' W 124°07'7 7.3
2016-May-20 07:33N 46°13' W 123°57'4 3.7
2016-May-20 06:33N 46°11' W 123°51'0 0.0
2016-May-20 05:33N 46°11' W 123°51'0 0.0
2016-May-20 04:33N 46°11' W 123°51'2 2.3
2016-May-20 03:31N 46°12' W 123°48'0 0.0
2016-May-20 02:31N 46°12' W 123°48'0 0.0
2016-May-20 01:31N 46°12' W 123°48'0 0.0
2016-May-20 00:31N 46°12' W 123°48'0 0.0
2016-May-19 23:28N 46°12' W 123°48'0 0.0
2016-May-19 22:31N 46°12' W 123°48'0 0.0
2016-May-19 21:31N 46°12' W 123°48'0 0.0
2016-May-19 20:31N 46°12' W 123°48'0 0.0
2016-May-19 19:28N 46°12' W 123°48'0 0.0
2016-May-19 18:31N 46°12' W 123°48'0 0.0
2016-May-19 17:31N 46°12' W 123°48'0 0.0
2016-May-19 16:31N 46°12' W 123°48'0 0.0
2016-May-19 15:31N 46°12' W 123°48'0 0.0
2016-May-19 14:31N 46°12' W 123°48'0 0.0
2016-May-19 13:31N 46°12' W 123°48'0 0.0
2016-May-19 12:31N 46°12' W 123°48'0 0.0
2016-May-19 11:31N 46°12' W 123°48'0 0.0
2016-May-19 10:31N 46°12' W 123°48'0 0.0
2016-May-19 09:31N 46°12' W 123°48'0 0.0
2016-May-19 08:31N 46°12' W 123°48'0 0.0
2016-May-19 07:31N 46°12' W 123°48'0 0.0
2016-May-19 06:32N 46°12' W 123°48'0 0.0
2016-May-19 05:32N 46°12' W 123°48'0 0.0
2016-May-19 04:31N 46°12' W 123°48'0 0.0
2016-May-19 03:32N 46°12' W 123°48'0 0.0
2016-May-19 02:31N 46°12' W 123°48'0 0.0
2016-May-19 01:32N 46°12' W 123°48'0 0.0
2016-May-19 00:32N 46°12' W 123°48'0 0.0
2016-May-18 23:32N 46°12' W 123°48'0 0.0
2016-May-18 22:29N 46°12' W 123°48'0 0.0
2016-May-18 21:32N 46°12' W 123°48'0 0.0
2016-May-18 20:32N 46°12' W 123°48'0 0.0
2016-May-18 19:32N 46°12' W 123°48'0 0.0
2016-May-18 18:32N 46°12' W 123°48'0 0.0
2016-May-18 17:32N 46°12' W 123°48'2 1.6
2016-May-18 16:33N 46°12' W 123°50'2 1.5
2016-May-18 15:31N 46°12' W 123°48'0 0.0
2016-May-18 14:31N 46°12' W 123°48'0 0.0
2016-May-18 13:31N 46°12' W 123°48'0 0.0
2016-May-18 12:31N 46°12' W 123°48'0 0.0
2016-May-18 11:31N 46°12' W 123°48'0 0.0
2016-May-18 10:31N 46°12' W 123°48'0 0.0
2016-May-18 09:31N 46°12' W 123°48'0 0.0
2016-May-18 08:31N 46°12' W 123°48'0 0.0
2016-May-18 07:31N 46°12' W 123°48'0 0.0
2016-May-18 06:31N 46°12' W 123°48'0 0.0
2016-May-18 05:31N 46°12' W 123°48'0 0.0
2016-May-18 04:31N 46°12' W 123°48'0 0.0
2016-May-18 03:31N 46°12' W 123°48'0 0.0
2016-May-18 02:31N 46°12' W 123°48'0 0.0
2016-May-18 01:31N 46°12' W 123°48'0 0.0
2016-May-18 00:31N 46°12' W 123°48'0 0.0
2016-May-17 23:31N 46°12' W 123°48'0 0.0
2016-May-17 22:31N 46°12' W 123°48'0 0.0
2016-May-17 21:31N 46°12' W 123°48'0 0.0
2016-May-17 20:31N 46°12' W 123°48'0 0.0
2016-May-17 19:31N 46°12' W 123°48'0 0.0
2016-May-17 18:31N 46°12' W 123°48'0 0.0
2016-May-17 17:31N 46°12' W 123°48'0 0.0
2016-May-17 16:31N 46°12' W 123°48'0 0.0
2016-May-17 15:31N 46°12' W 123°48'0 0.0
2016-May-17 14:31N 46°12' W 123°48'0 0.0
2016-May-17 13:31N 46°12' W 123°48'0 0.0
2016-May-17 12:31N 46°12' W 123°48'0 0.0
2016-May-17 11:31N 46°12' W 123°48'0 0.0
2016-May-17 10:31N 46°12' W 123°48'0 0.0
2016-May-17 09:31N 46°12' W 123°48'0 0.0
2016-May-17 08:31N 46°12' W 123°48'0 0.0
2016-May-17 07:31N 46°12' W 123°48'0 0.0
2016-May-17 06:31N 46°12' W 123°48'0 0.0
2016-May-17 05:31N 46°12' W 123°48'0 0.0
2016-May-17 04:31N 46°12' W 123°48'0 0.0
2016-May-17 03:31N 46°12' W 123°48'0 0.0
2016-May-17 02:32N 46°12' W 123°48'0 0.0
2016-May-17 01:32N 46°12' W 123°48'0 0.0
2016-May-17 00:32N 46°12' W 123°48'0 0.0
2016-May-16 23:32N 46°12' W 123°48'0 0.0
2016-May-16 22:31N 46°12' W 123°48'0 0.0
2016-May-16 21:32N 46°12' W 123°48'0 0.0
2016-May-16 20:32N 46°12' W 123°48'0 0.0
2016-May-16 19:32N 46°12' W 123°48'0 0.0
2016-May-16 18:32N 46°12' W 123°48'0 0.0
2016-May-16 17:32N 46°12' W 123°48'0 0.0
2016-May-16 16:32N 46°12' W 123°48'  
Track history (hours):
 
Tides and Currents Weather Stations Pressure Air Temp Water Temp Dewpoint Dewpoint Depression Visibility Wind Speed Wind Dir Waves Ship Positions

Ocean Beaut

Owner: John Moreland Fishing Inc., Astoria, OR. More information available from US FCC via Universal Licensing System.

Last reported at 2016-May-26 15:32 UTC. Time now 2016-May-26 16:28 UTC.
Position N 46°12' W 123°48'.

Length 20 m.

Type: Fishing. MMSI: 367187080.

Date/timePositionNaut miles runAvg speedWind from/ knotsBaromVisibWave heightAir tempDewpointWater temp
2016-May-26 15:32N 46°12' W 123°48'0 0.0
2016-May-26 14:32N 46°12' W 123°48'0 0.0
2016-May-26 13:32N 46°12' W 123°48'0 0.0
2016-May-26 12:32N 46°12' W 123°48'0 0.0
2016-May-26 11:32N 46°12' W 123°48'0 0.0
2016-May-26 10:32N 46°12' W 123°48'0 0.0
2016-May-26 09:32N 46°12' W 123°48'0 0.0
2016-May-26 08:32N 46°12' W 123°48'0 0.0
2016-May-26 07:32N 46°12' W 123°48'0 0.0
2016-May-26 06:32N 46°12' W 123°48'0 0.0
2016-May-26 05:32N 46°12' W 123°48'0 0.0
2016-May-26 04:32N 46°12' W 123°48'0 0.0
2016-May-26 03:32N 46°12' W 123°48'0 0.0
2016-May-26 02:32N 46°12' W 123°48'0 0.0
2016-May-26 01:32N 46°12' W 123°48'0 0.0
2016-May-26 00:32N 46°12' W 123°48'0 0.0
2016-May-25 23:32N 46°12' W 123°48'0 0.0
2016-May-25 22:32N 46°12' W 123°48'0 0.0
2016-May-25 21:32N 46°12' W 123°48'0 0.0
2016-May-25 20:32N 46°12' W 123°48'0 0.0
2016-May-25 19:32N 46°12' W 123°48'0 0.0
2016-May-25 18:32N 46°12' W 123°48'0 0.0
2016-May-25 17:33N 46°12' W 123°48'0 0.0
2016-May-25 16:32N 46°12' W 123°48'0 0.0
2016-May-25 15:32N 46°12' W 123°48'0 0.0
2016-May-25 14:33N 46°12' W 123°48'0 0.0
2016-May-25 13:33N 46°12' W 123°48'0 0.0
2016-May-25 12:33N 46°12' W 123°48'0 0.0
2016-May-25 11:33N 46°12' W 123°48'0 0.0
2016-May-25 10:33N 46°12' W 123°48'0 0.0
2016-May-25 09:33N 46°12' W 123°48'0 0.0
2016-May-25 08:33N 46°12' W 123°48'0 0.0
2016-May-25 07:33N 46°12' W 123°48'0 0.0
2016-May-25 06:33N 46°12' W 123°48'0 0.0
2016-May-25 05:33N 46°12' W 123°48'0 0.0
2016-May-25 04:33N 46°12' W 123°48'0 0.0
2016-May-25 03:33N 46°12' W 123°48'0 0.0
2016-May-25 02:33N 46°12' W 123°48'0 0.0
2016-May-25 01:33N 46°12' W 123°48'0 0.0
2016-May-25 00:33N 46°12' W 123°48'0 0.0
2016-May-24 23:33N 46°12' W 123°48'0 0.0
2016-May-24 22:33N 46°12' W 123°48'0 0.0
2016-May-24 21:33N 46°12' W 123°48'0 0.0
2016-May-24 20:33N 46°12' W 123°48'0 0.0
2016-May-24 19:33N 46°12' W 123°48'0 0.0
2016-May-24 18:33N 46°12' W 123°48'2 1.5
2016-May-24 17:32N 46°12' W 123°50'1 0.9
2016-May-24 16:33N 46°11' W 123°51'0 0.0
2016-May-24 15:33N 46°11' W 123°51'0 0.0
2016-May-24 14:33N 46°11' W 123°51'0 0.0
2016-May-24 13:33N 46°11' W 123°51'0 0.0
2016-May-24 12:33N 46°11' W 123°51'0 0.0
2016-May-24 11:30N 46°11' W 123°51'0 0.2
2016-May-24 10:31N 46°11' W 123°52'0 0.0
2016-May-24 09:31N 46°11' W 123°52'0 0.0
2016-May-24 08:31N 46°11' W 123°52'0 0.0
2016-May-24 07:31N 46°11' W 123°52'0 0.0
2016-May-24 06:31N 46°11' W 123°52'0 0.0
2016-May-24 05:31N 46°11' W 123°52'0 0.0
2016-May-24 04:31N 46°11' W 123°52'0 0.0
2016-May-24 03:31N 46°11' W 123°52'0 0.0
2016-May-24 02:31N 46°11' W 123°52'0 0.0
2016-May-24 01:31N 46°11' W 123°52'0 0.0
2016-May-24 00:32N 46°11' W 123°52'0 0.0
2016-May-23 23:31N 46°11' W 123°52'0 0.0
2016-May-23 22:31N 46°11' W 123°52'0 0.0
2016-May-23 21:31N 46°11' W 123°52'3 2.9
2016-May-23 20:33N 46°12' W 123°56'8 7.9
2016-May-23 19:34N 46°15' W 124°06'5 5.3
2016-May-23 18:34N 46°18' W 124°12'5 4.6
2016-May-23 17:33N 46°22' W 124°16'4 4.1
2016-May-23 16:33N 46°25' W 124°20'4 4.0
2016-May-23 15:32N 46°21' W 124°21'2 2.5
2016-May-23 14:33N 46°19' W 124°24'2 2.3
2016-May-23 13:33N 46°22' W 124°25'2 2.3
2016-May-23 12:33N 46°24' W 124°25'2 2.4
2016-May-23 11:30N 46°26' W 124°25'0 0.2
2016-May-23 10:30N 46°27' W 124°25'0 0.2
2016-May-23 09:24N 46°27' W 124°25'0 0.2
2016-May-23 08:30N 46°27' W 124°25'2 1.6
2016-May-23 07:33N 46°28' W 124°24'1 0.7
2016-May-23 06:33N 46°27' W 124°24'3 3.1
2016-May-23 05:34N 46°24' W 124°25'2 1.8
2016-May-23 04:33N 46°23' W 124°25'2 2.3
2016-May-23 03:33N 46°20' W 124°25'2 2.3
2016-May-23 02:33N 46°19' W 124°23'2 2.3
2016-May-23 01:31N 46°17' W 124°20'3 2.7
2016-May-23 00:33N 46°19' W 124°21'6 6.4
2016-May-22 23:32N 46°26' W 124°20'2 1.6
2016-May-22 22:33N 46°27' W 124°19'2 2.3
2016-May-22 21:33N 46°29' W 124°16'1 1.4
2016-May-22 20:33N 46°30' W 124°15'2 2.4
2016-May-22 19:34N 46°32' W 124°16'2 2.4
2016-May-22 18:33N 46°34' W 124°17'3 3.4
2016-May-22 17:33N 46°35' W 124°22'2 1.8
2016-May-22 16:33N 46°33' W 124°22'2 2.5
2016-May-22 15:33N 46°30' W 124°23'2 2.5
2016-May-22 14:33N 46°28' W 124°23'2 2.1
2016-May-22 13:33N 46°26' W 124°25'2 2.3
2016-May-22 12:33N 46°24' W 124°25'2 2.3
2016-May-22 11:33N 46°22' W 124°24'2 2.4
2016-May-22 10:33N 46°20' W 124°23'2 2.1
2016-May-22 09:33N 46°20' W 124°19'2 2.3
2016-May-22 08:33N 46°22' W 124°19'2 1.8
2016-May-22 07:31N 46°21' W 124°21'2 1.7
2016-May-22 06:33N 46°19' W 124°22'1 1.1
2016-May-22 05:33N 46°18' W 124°23'2 2.2
2016-May-22 04:33N 46°20' W 124°24'2 2.2
2016-May-22 03:33N 46°22' W 124°25'2 2.3
2016-May-22 02:33N 46°25' W 124°25'3 2.6
2016-May-22 01:33N 46°27' W 124°25'6 5.6
2016-May-22 00:34N 46°27' W 124°16'2 1.6
2016-May-21 23:33N 46°25' W 124°17'2 2.5
2016-May-21 22:33N 46°23' W 124°15'2 2.2
2016-May-21 21:33N 46°22' W 124°13'3 3.3
2016-May-21 20:33N 46°19' W 124°15'8 8.1
2016-May-21 19:33N 46°14' W 124°24'7 7.1
2016-May-21 18:33N 46°09' W 124°32'6 6.4
2016-May-21 17:33N 46°05' W 124°39'6 6.0
2016-May-21 16:33N 46°02' W 124°47'2 1.9
2016-May-21 15:30N 46°02' W 124°49'2 1.7
2016-May-21 14:34N 46°03' W 124°50'2 1.6
2016-May-21 13:33N 46°05' W 124°50'7 6.4
2016-May-21 12:30N 46°10' W 124°43'7 7.3
2016-May-21 11:31N 46°16' W 124°38'5 5.6
2016-May-21 10:33N 46°20' W 124°35'2 1.8
2016-May-21 09:33N 46°21' W 124°32'2 2.2
2016-May-21 08:33N 46°20' W 124°29'2 2.3
2016-May-21 07:33N 46°20' W 124°26'2 2.2
2016-May-21 06:33N 46°18' W 124°23'1 1.1
2016-May-21 05:34N 46°18' W 124°22'4 3.6
2016-May-21 04:33N 46°22' W 124°23'6 6.1
2016-May-21 03:33N 46°28' W 124°25'3 2.5
2016-May-21 02:33N 46°30' W 124°25'2 2.5
2016-May-21 01:33N 46°33' W 124°25'2 2.4
2016-May-21 00:33N 46°35' W 124°25'7 6.5
2016-May-20 23:33N 46°41' W 124°27'2 2.2
2016-May-20 22:33N 46°43' W 124°29'3 2.4
2016-May-20 21:21N 46°46' W 124°30'2 2.4
2016-May-20 20:33N 46°48' W 124°31'3 1.3
2016-May-20 18:33N 46°45' W 124°32'2 2.4
2016-May-20 17:31N 46°43' W 124°29'2 2.5
2016-May-20 16:33N 46°41' W 124°28'6 5.8
2016-May-20 15:33N 46°35' W 124°26'6 6.1
2016-May-20 14:33N 46°29' W 124°25'5 4.5
2016-May-20 13:33N 46°25' W 124°25'2 2.1
2016-May-20 12:33N 46°23' W 124°25'2 2.1
2016-May-20 11:34N 46°21' W 124°24'2 2.4
2016-May-20 10:33N 46°19' W 124°22'6 6.0
2016-May-20 09:33N 46°14' W 124°16'7 6.8
2016-May-20 08:33N 46°15' W 124°07'7 7.3
2016-May-20 07:33N 46°13' W 123°57'4 3.7
2016-May-20 06:33N 46°11' W 123°51'0 0.0
2016-May-20 05:33N 46°11' W 123°51'0 0.0
2016-May-20 04:33N 46°11' W 123°51'2 2.3
2016-May-20 03:31N 46°12' W 123°48'0 0.0
2016-May-20 02:31N 46°12' W 123°48'0 0.0
2016-May-20 01:31N 46°12' W 123°48'0 0.0
2016-May-20 00:31N 46°12' W 123°48'0 0.0
2016-May-19 23:28N 46°12' W 123°48'0 0.0
2016-May-19 22:31N 46°12' W 123°48'0 0.0
2016-May-19 21:31N 46°12' W 123°48'0 0.0
2016-May-19 20:31N 46°12' W 123°48'0 0.0
2016-May-19 19:28N 46°12' W 123°48'0 0.0
2016-May-19 18:31N 46°12' W 123°48'0 0.0
2016-May-19 17:31N 46°12' W 123°48'0 0.0
2016-May-19 16:31N 46°12' W 123°48'0 0.0
2016-May-19 15:31N 46°12' W 123°48'0 0.0
2016-May-19 14:31N 46°12' W 123°48'0 0.0
2016-May-19 13:31N 46°12' W 123°48'0 0.0
2016-May-19 12:31N 46°12' W 123°48'0 0.0
2016-May-19 11:31N 46°12' W 123°48'0 0.0
2016-May-19 10:31N 46°12' W 123°48'0 0.0
2016-May-19 09:31N 46°12' W 123°48'0 0.0
2016-May-19 08:31N 46°12' W 123°48'0 0.0
2016-May-19 07:31N 46°12' W 123°48'0 0.0
2016-May-19 06:32N 46°12' W 123°48'0 0.0
2016-May-19 05:32N 46°12' W 123°48'0 0.0
2016-May-19 04:31N 46°12' W 123°48'0 0.0
2016-May-19 03:32N 46°12' W 123°48'0 0.0
2016-May-19 02:31N 46°12' W 123°48'0 0.0
2016-May-19 01:32N 46°12' W 123°48'0 0.0
2016-May-19 00:32N 46°12' W 123°48'0 0.0
2016-May-18 23:32N 46°12' W 123°48'0 0.0
2016-May-18 22:29N 46°12' W 123°48'0 0.0
2016-May-18 21:32N 46°12' W 123°48'0 0.0
2016-May-18 20:32N 46°12' W 123°48'0 0.0
2016-May-18 19:32N 46°12' W 123°48'0 0.0
2016-May-18 18:32N 46°12' W 123°48'0 0.0
2016-May-18 17:32N 46°12' W 123°48'2 1.6
2016-May-18 16:33N 46°12' W 123°50'2 1.5
2016-May-18 15:31N 46°12' W 123°48'0 0.0
2016-May-18 14:31N 46°12' W 123°48'0 0.0
2016-May-18 13:31N 46°12' W 123°48'0 0.0
2016-May-18 12:31N 46°12' W 123°48'0 0.0
2016-May-18 11:31N 46°12' W 123°48'0 0.0
2016-May-18 10:31N 46°12' W 123°48'0 0.0
2016-May-18 09:31N 46°12' W 123°48'0 0.0
2016-May-18 08:31N 46°12' W 123°48'0 0.0
2016-May-18 07:31N 46°12' W 123°48'0 0.0
2016-May-18 06:31N 46°12' W 123°48'0 0.0
2016-May-18 05:31N 46°12' W 123°48'0 0.0
2016-May-18 04:31N 46°12' W 123°48'0 0.0
2016-May-18 03:31N 46°12' W 123°48'0 0.0
2016-May-18 02:31N 46°12' W 123°48'0 0.0
2016-May-18 01:31N 46°12' W 123°48'0 0.0
2016-May-18 00:31N 46°12' W 123°48'0 0.0
2016-May-17 23:31N 46°12' W 123°48'0 0.0
2016-May-17 22:31N 46°12' W 123°48'0 0.0
2016-May-17 21:31N 46°12' W 123°48'0 0.0
2016-May-17 20:31N 46°12' W 123°48'0 0.0
2016-May-17 19:31N 46°12' W 123°48'0 0.0
2016-May-17 18:31N 46°12' W 123°48'0 0.0
2016-May-17 17:31N 46°12' W 123°48'0 0.0
2016-May-17 16:31N 46°12' W 123°48'0 0.0
2016-May-17 15:31N 46°12' W 123°48'0 0.0
2016-May-17 14:31N 46°12' W 123°48'0 0.0
2016-May-17 13:31N 46°12' W 123°48'0 0.0
2016-May-17 12:31N 46°12' W 123°48'0 0.0
2016-May-17 11:31N 46°12' W 123°48'0 0.0
2016-May-17 10:31N 46°12' W 123°48'0 0.0
2016-May-17 09:31N 46°12' W 123°48'0 0.0
2016-May-17 08:31N 46°12' W 123°48'0 0.0
2016-May-17 07:31N 46°12' W 123°48'0 0.0
2016-May-17 06:31N 46°12' W 123°48'0 0.0
2016-May-17 05:31N 46°12' W 123°48'0 0.0
2016-May-17 04:31N 46°12' W 123°48'0 0.0
2016-May-17 03:31N 46°12' W 123°48'0 0.0
2016-May-17 02:32N 46°12' W 123°48'0 0.0
2016-May-17 01:32N 46°12' W 123°48'0 0.0
2016-May-17 00:32N 46°12' W 123°48'0 0.0
2016-May-16 23:32N 46°12' W 123°48'0 0.0
2016-May-16 22:31N 46°12' W 123°48'0 0.0
2016-May-16 21:32N 46°12' W 123°48'0 0.0
2016-May-16 20:32N 46°12' W 123°48'0 0.0
2016-May-16 19:32N 46°12' W 123°48'0 0.0
2016-May-16 18:32N 46°12' W 123°48'0 0.0
2016-May-16 17:32N 46°12' W 123°48'0 0.0
2016-May-16 16:32N 46°12' W 123°48'  

Dump ship's entire track history